createdAt,value
2018-03-19T00:00:03.048Z,50.2
2018-03-19T00:01:05.117Z,50.3
2018-03-19T00:02:06.864Z,50.4
2018-03-19T00:03:09.003Z,50.2
2018-03-19T00:04:11.114Z,50.3
2018-03-19T00:05:13.358Z,50.2
2018-03-19T00:06:15.352Z,51.1
2018-03-19T00:07:17.350Z,50.8
2018-03-19T00:08:19.528Z,50.3
2018-03-19T00:09:21.505Z,50.0
2018-03-19T00:10:23.541Z,50.2
2018-03-19T00:11:25.600Z,50.0
2018-03-19T00:12:27.281Z,49.6
2018-03-19T00:13:28.993Z,49.8
2018-03-19T00:14:30.761Z,50.1
2018-03-19T00:15:32.521Z,50.2
2018-03-19T00:16:34.271Z,50.2
2018-03-19T00:17:36.015Z,50.5
2018-03-19T00:18:38.165Z,50.3
2018-03-19T00:19:39.882Z,50.1
2018-03-19T00:20:42.185Z,50.5
2018-03-19T00:21:43.931Z,50.3
2018-03-19T00:22:46.117Z,50.6
2018-03-19T00:23:47.795Z,50.2
2018-03-19T00:24:49.851Z,49.9
2018-03-19T00:25:51.543Z,50.4
2018-03-19T00:26:53.308Z,50.5
2018-03-19T00:27:55.466Z,50.9
2018-03-19T00:28:57.250Z,50.8
2018-03-19T00:29:59.176Z,50.9
2018-03-19T00:31:01.189Z,51.2
2018-03-19T00:32:03.318Z,50.8
2018-03-19T00:33:05.544Z,50.4
2018-03-19T00:34:07.868Z,51.2
2018-03-19T00:35:09.615Z,51.5
2018-03-19T00:36:11.800Z,51.2
2018-03-19T00:37:13.595Z,51.1
2018-03-19T00:38:15.416Z,51.1
2018-03-19T00:39:17.159Z,50.9
2018-03-19T00:40:19.046Z,51.5
2018-03-19T00:41:21.280Z,51.6
2018-03-19T00:42:23.627Z,51.5
2018-03-19T00:43:25.691Z,51.6
2018-03-19T00:44:27.776Z,51.5
2018-03-19T00:45:29.495Z,51.4
2018-03-19T00:46:31.459Z,50.9
2018-03-19T00:47:33.700Z,51.3
2018-03-19T00:48:35.441Z,51.5
2018-03-19T00:49:37.269Z,51.6
2018-03-19T00:50:39.244Z,52.0
2018-03-19T00:51:41.456Z,52.5
2018-03-19T00:52:43.175Z,52.2
2018-03-19T00:53:44.882Z,51.9
2018-03-19T00:54:46.704Z,52.4
2018-03-19T00:55:48.790Z,52.1
2018-03-19T00:56:50.452Z,51.9
2018-03-19T00:57:52.679Z,52.0
2018-03-19T00:58:54.832Z,52.2
2018-03-19T00:59:57.100Z,52.2
2018-03-19T01:00:59.115Z,52.1
2018-03-19T01:02:01.059Z,52.1
2018-03-19T01:03:02.756Z,52.6
2018-03-19T01:04:04.498Z,52.3
2018-03-19T01:05:06.683Z,52.0
2018-03-19T01:06:08.665Z,53.0
2018-03-19T01:07:10.695Z,52.8
2018-03-19T01:08:12.456Z,52.1
2018-03-19T01:09:14.179Z,52.2
2018-03-19T01:10:16.155Z,52.6
2018-03-19T01:11:17.962Z,52.1
2018-03-19T01:12:20.108Z,52.1
2018-03-19T01:13:22.057Z,52.2
2018-03-19T01:14:23.781Z,52.5
2018-03-19T01:15:25.533Z,52.3
2018-03-19T01:16:27.465Z,52.3
2018-03-19T01:17:29.515Z,53.1
2018-03-19T01:18:31.322Z,52.6
2018-03-19T01:19:33.033Z,53.2
2018-03-19T01:20:34.743Z,53.2
2018-03-19T01:21:36.497Z,53.1
2018-03-19T01:22:38.554Z,53.5
2018-03-19T01:23:40.496Z,53.6
2018-03-19T01:24:42.267Z,53.5
2018-03-19T01:25:44.166Z,52.8
2018-03-19T01:26:46.135Z,53.1
2018-03-19T01:27:47.779Z,53.5
2018-03-19T01:28:49.650Z,52.9
2018-03-19T01:29:51.369Z,53.1
2018-03-19T01:30:53.582Z,53.6
2018-03-19T01:31:55.518Z,53.4
2018-03-19T01:32:57.363Z,53.4
2018-03-19T01:33:59.057Z,53.1
2018-03-19T01:35:00.828Z,53.1
2018-03-19T01:36:02.585Z,53.6
2018-03-19T01:37:04.415Z,53.5
2018-03-19T01:38:06.385Z,53.8
2018-03-19T01:39:08.359Z,53.8
2018-03-19T01:40:10.007Z,53.9
2018-03-19T01:41:11.729Z,54.1
2018-03-19T01:42:13.503Z,54.4
2018-03-19T01:43:15.342Z,53.6
2018-03-19T01:44:17.122Z,54.1
2018-03-19T01:45:19.042Z,53.9
2018-03-19T01:46:21.055Z,54.0
2018-03-19T01:47:23.052Z,53.7
2018-03-19T01:48:25.000Z,53.6
2018-03-19T01:49:27.181Z,53.6
2018-03-19T01:50:28.830Z,53.9
2018-03-19T01:51:30.654Z,54.2
2018-03-19T01:52:32.655Z,54.2
2018-03-19T01:53:34.365Z,54.0
2018-03-19T01:54:36.127Z,54.5
2018-03-19T01:55:37.976Z,53.8
2018-03-19T01:56:41.650Z,53.9
2018-03-19T01:57:43.329Z,54.2
2018-03-19T01:58:45.096Z,54.2
2018-03-19T01:59:47.091Z,53.8
2018-03-19T02:00:48.800Z,54.0
2018-03-19T02:01:50.801Z,53.9
2018-03-19T02:02:52.735Z,54.1
2018-03-19T02:03:54.698Z,54.3
2018-03-19T02:04:56.741Z,54.0
2018-03-19T02:05:58.393Z,53.8
2018-03-19T02:07:00.043Z,54.0
2018-03-19T02:08:02.022Z,54.3
2018-03-19T02:09:03.959Z,54.2
2018-03-19T02:10:05.750Z,54.2
2018-03-19T02:11:07.742Z,54.4
2018-03-19T02:12:09.801Z,54.2
2018-03-19T02:13:11.657Z,54.0
2018-03-19T02:14:13.573Z,54.1
2018-03-19T02:15:15.277Z,53.9
2018-03-19T02:16:17.041Z,54.2
2018-03-19T02:17:19.094Z,54.4
2018-03-19T02:18:21.003Z,54.4
2018-03-19T02:19:23.060Z,54.5
2018-03-19T02:20:25.009Z,54.7
2018-03-19T02:21:26.900Z,54.6
2018-03-19T02:22:29.155Z,54.3
2018-03-19T02:23:31.070Z,54.2
2018-03-19T02:24:32.766Z,54.3
2018-03-19T02:25:34.757Z,54.3
2018-03-19T02:26:36.432Z,54.5
2018-03-19T02:27:38.214Z,54.3
2018-03-19T02:28:40.310Z,54.9
2018-03-19T02:29:42.370Z,54.9
2018-03-19T02:30:44.042Z,55.0
2018-03-19T02:31:46.036Z,54.9
2018-03-19T02:32:48.048Z,54.7
2018-03-19T02:33:49.918Z,54.9
2018-03-19T02:34:51.732Z,54.9
2018-03-19T02:35:53.453Z,54.9
2018-03-19T02:36:55.445Z,54.9
2018-03-19T02:37:57.218Z,54.9
2018-03-19T02:38:58.877Z,54.9
2018-03-19T02:40:00.822Z,54.8
2018-03-19T02:41:02.522Z,55.1
2018-03-19T02:42:04.576Z,54.9
2018-03-19T02:43:06.576Z,54.9
2018-03-19T02:44:08.537Z,54.8
2018-03-19T02:45:10.325Z,55.2
2018-03-19T02:46:12.115Z,54.9
2018-03-19T02:47:14.256Z,55.1
2018-03-19T02:48:15.950Z,54.3
2018-03-19T02:49:17.695Z,54.4
2018-03-19T02:50:19.390Z,54.9
2018-03-19T02:51:21.292Z,55.1
2018-03-19T02:52:23.245Z,55.4
2018-03-19T02:53:25.198Z,55.2
2018-03-19T02:54:27.318Z,55.1
2018-03-19T02:55:29.310Z,55.1
2018-03-19T02:56:31.462Z,55.6
2018-03-19T02:57:33.382Z,55.5
2018-03-19T02:58:35.295Z,55.1
2018-03-19T02:59:37.086Z,55.5
2018-03-19T03:00:39.022Z,55.8
2018-03-19T03:01:40.838Z,55.7
2018-03-19T03:02:42.978Z,55.9
2018-03-19T03:03:44.735Z,55.5
2018-03-19T03:04:46.472Z,55.8
2018-03-19T03:05:48.541Z,55.8
2018-03-19T03:06:50.241Z,55.6
2018-03-19T03:07:52.155Z,55.4
2018-03-19T03:08:53.906Z,56.0
2018-03-19T03:09:55.603Z,55.9
2018-03-19T03:10:57.525Z,55.7
2018-03-19T03:11:59.284Z,56.0
2018-03-19T03:13:00.963Z,55.7
2018-03-19T03:14:02.959Z,55.8
2018-03-19T03:15:04.634Z,55.7
2018-03-19T03:16:06.457Z,56.3
2018-03-19T03:17:08.459Z,56.5
2018-03-19T03:18:10.622Z,56.2
2018-03-19T03:19:12.534Z,56.3
2018-03-19T03:20:14.230Z,56.1
2018-03-19T03:21:16.040Z,56.4
2018-03-19T03:22:17.724Z,56.3
2018-03-19T03:23:19.781Z,56.4
2018-03-19T03:24:22.527Z,56.4
2018-03-19T03:25:24.157Z,56.5
2018-03-19T03:26:25.876Z,56.5
2018-03-19T03:27:27.825Z,56.5
2018-03-19T03:28:29.927Z,56.6
2018-03-19T03:29:31.998Z,56.7
2018-03-19T03:30:33.925Z,56.2
2018-03-19T03:31:35.763Z,56.5
2018-03-19T03:32:37.573Z,56.5
2018-03-19T03:33:39.363Z,56.5
2018-03-19T03:34:41.408Z,56.6
2018-03-19T03:35:43.391Z,56.6
2018-03-19T03:36:45.223Z,57.1
2018-03-19T03:37:46.891Z,56.8
2018-03-19T03:38:48.664Z,56.8
2018-03-19T03:39:50.540Z,57.1
2018-03-19T03:40:52.710Z,56.2
2018-03-19T03:41:54.392Z,56.5
2018-03-19T03:42:56.328Z,56.5
2018-03-19T03:43:57.982Z,56.5
2018-03-19T03:45:00.110Z,57.0
2018-03-19T03:46:02.006Z,57.3
2018-03-19T03:47:03.616Z,57.5
2018-03-19T03:48:05.312Z,57.7
2018-03-19T03:49:07.466Z,57.1
2018-03-19T03:50:09.313Z,57.3
2018-03-19T03:51:11.210Z,57.5
2018-03-19T03:52:12.943Z,58.3
2018-03-19T03:53:14.692Z,58.4
2018-03-19T03:54:16.459Z,58.1
2018-03-19T03:55:18.326Z,58.5
2018-03-19T03:56:20.260Z,58.4
2018-03-19T03:57:22.107Z,58.7
2018-03-19T03:58:23.870Z,58.8
2018-03-19T03:59:25.927Z,59.3
2018-03-19T04:00:27.686Z,59.3
2018-03-19T04:01:29.668Z,59.7
2018-03-19T04:02:31.498Z,59.3
2018-03-19T04:03:33.162Z,59.6
2018-03-19T04:04:35.183Z,59.4
2018-03-19T04:05:36.860Z,59.6
2018-03-19T04:06:38.827Z,59.2
2018-03-19T04:07:40.750Z,59.7
2018-03-19T04:08:42.494Z,59.7
2018-03-19T04:09:44.504Z,59.9
2018-03-19T04:10:46.230Z,59.7
2018-03-19T04:11:48.033Z,59.8
2018-03-19T04:12:50.127Z,59.9
2018-03-19T04:13:51.763Z,59.4
2018-03-19T04:14:53.668Z,59.0
2018-03-19T04:15:55.325Z,59.2
2018-03-19T04:16:57.401Z,59.2
2018-03-19T04:17:59.228Z,59.6
2018-03-19T04:19:00.903Z,59.5
2018-03-19T04:20:03.118Z,59.8
2018-03-19T04:21:05.019Z,59.8
2018-03-19T04:22:06.780Z,59.7
2018-03-19T04:23:08.886Z,59.7
2018-03-19T04:24:10.673Z,59.6
2018-03-19T04:25:12.749Z,59.5
2018-03-19T04:26:14.364Z,60.1
2018-03-19T04:27:16.089Z,59.9
2018-03-19T04:28:17.812Z,60.0
2018-03-19T04:29:19.726Z,59.8
2018-03-19T04:30:21.420Z,60.0
2018-03-19T04:31:23.438Z,60.5
2018-03-19T04:32:25.405Z,60.2
2018-03-19T04:33:27.056Z,60.6
2018-03-19T04:34:28.738Z,60.5
2018-03-19T04:35:30.475Z,60.4
2018-03-19T04:36:32.201Z,60.9
2018-03-19T04:37:34.034Z,61.0
2018-03-19T04:38:35.753Z,61.4
2018-03-19T04:39:37.806Z,61.3
2018-03-19T04:40:39.644Z,61.4
2018-03-19T04:41:41.316Z,61.4
2018-03-19T04:42:43.096Z,61.1
2018-03-19T04:43:45.031Z,61.4
2018-03-19T04:44:46.659Z,61.3
2018-03-19T04:45:48.365Z,61.0
2018-03-19T04:46:50.158Z,61.2
2018-03-19T04:47:51.973Z,61.4
2018-03-19T04:48:53.871Z,61.1
2018-03-19T04:49:55.654Z,61.4
2018-03-19T04:50:57.455Z,61.3
2018-03-19T04:51:59.415Z,61.3
2018-03-19T04:53:01.384Z,61.1
2018-03-19T04:54:03.367Z,60.9
2018-03-19T04:55:05.290Z,61.3
2018-03-19T04:56:07.047Z,61.3
2018-03-19T04:57:08.935Z,61.0
2018-03-19T04:58:10.788Z,61.1
2018-03-19T04:59:13.013Z,61.4
2018-03-19T05:00:15.011Z,61.7
2018-03-19T05:01:16.920Z,61.6
2018-03-19T05:02:19.103Z,61.5
2018-03-19T05:03:20.748Z,62.0
2018-03-19T05:04:22.724Z,62.0
2018-03-19T05:05:24.276Z,62.0
2018-03-19T05:06:26.112Z,62.1
2018-03-19T05:07:28.045Z,61.7
2018-03-19T05:08:29.668Z,62.0
2018-03-19T05:09:31.321Z,62.1
2018-03-19T05:10:33.126Z,61.8
2018-03-19T05:11:35.050Z,61.9
2018-03-19T05:12:37.070Z,62.0
2018-03-19T05:13:39.004Z,61.7
2018-03-19T05:14:40.996Z,61.5
2018-03-19T05:15:42.898Z,61.7
2018-03-19T05:16:44.776Z,61.3
2018-03-19T05:17:46.369Z,61.4
2018-03-19T05:18:48.263Z,62.0
2018-03-19T05:19:49.963Z,61.9
2018-03-19T05:20:51.597Z,61.9
2018-03-19T05:21:53.569Z,62.1
2018-03-19T05:22:55.484Z,61.7
2018-03-19T05:23:57.107Z,62.1
2018-03-19T05:24:59.289Z,62.0
2018-03-19T05:26:01.366Z,62.0
2018-03-19T05:27:03.192Z,62.0
2018-03-19T05:28:05.176Z,61.8
2018-03-19T05:29:06.883Z,61.8
2018-03-19T05:30:08.926Z,62.0
2018-03-19T05:31:10.809Z,62.1
2018-03-19T05:32:12.451Z,61.9
2018-03-19T05:33:14.443Z,62.0
2018-03-19T05:34:16.172Z,62.2
2018-03-19T05:35:17.954Z,62.0
2018-03-19T05:36:19.543Z,62.1
2018-03-19T05:37:21.153Z,61.9
2018-03-19T05:38:23.038Z,61.5
2018-03-19T05:39:24.905Z,62.0
2018-03-19T05:40:26.755Z,62.1
2018-03-19T05:41:28.556Z,61.8
2018-03-19T05:42:30.461Z,61.7
2018-03-19T05:43:32.189Z,61.7
2018-03-19T05:44:34.249Z,61.9
2018-03-19T05:45:35.816Z,61.5
2018-03-19T05:46:37.565Z,61.5
2018-03-19T05:47:39.382Z,61.9
2018-03-19T05:48:41.236Z,61.9
2018-03-19T05:49:43.205Z,61.2
2018-03-19T05:50:45.125Z,61.5
2018-03-19T05:51:46.746Z,61.7
2018-03-19T05:52:48.717Z,61.3
2018-03-19T05:53:50.834Z,61.8
2018-03-19T05:54:52.853Z,61.3
2018-03-19T05:55:54.498Z,61.3
2018-03-19T05:56:56.495Z,61.1
2018-03-19T05:57:58.190Z,61.3
2018-03-19T05:58:59.814Z,61.1
2018-03-19T06:00:01.876Z,61.1
2018-03-19T06:01:03.839Z,61.3
2018-03-19T06:02:05.771Z,61.0
2018-03-19T06:03:07.528Z,60.9
2018-03-19T06:04:09.562Z,60.5
2018-03-19T06:05:11.620Z,60.3
2018-03-19T06:06:13.355Z,59.9
2018-03-19T06:07:15.264Z,59.9
2018-03-19T06:08:16.895Z,59.8
2018-03-19T06:09:18.782Z,59.9
2018-03-19T06:10:20.766Z,59.5
2018-03-19T06:11:22.890Z,59.7
2018-03-19T06:12:24.841Z,59.6
2018-03-19T06:13:26.520Z,59.8
2018-03-19T06:14:28.535Z,59.8
2018-03-19T06:15:30.303Z,59.8
2018-03-19T06:16:31.949Z,59.6
2018-03-19T06:17:33.757Z,59.9
2018-03-19T06:18:35.622Z,59.8
2018-03-19T06:19:37.526Z,59.5
2018-03-19T06:20:39.335Z,59.7
2018-03-19T06:21:41.309Z,59.7
2018-03-19T06:22:42.854Z,59.8
2018-03-19T06:23:44.714Z,59.8
2018-03-19T06:24:46.483Z,59.2
2018-03-19T06:25:48.464Z,59.3
2018-03-19T06:26:50.604Z,58.9
2018-03-19T06:27:52.263Z,59.1
2018-03-19T06:28:53.983Z,58.3
2018-03-19T06:29:55.677Z,58.5
2018-03-19T06:30:57.620Z,58.4
2018-03-19T06:31:59.774Z,58.2
2018-03-19T06:33:01.644Z,58.2
2018-03-19T06:34:03.367Z,57.7
2018-03-19T06:35:05.363Z,57.3
2018-03-19T06:36:07.021Z,57.5
2018-03-19T06:37:08.722Z,56.7
2018-03-19T06:38:10.517Z,56.7
2018-03-19T06:39:12.372Z,56.4
2018-03-19T06:40:14.240Z,55.7
2018-03-19T06:41:16.132Z,55.7
2018-03-19T06:42:17.720Z,55.2
2018-03-19T06:43:19.618Z,55.4
2018-03-19T06:44:21.669Z,55.1
2018-03-19T06:45:23.208Z,55.2
2018-03-19T06:46:25.246Z,55.4
2018-03-19T06:47:26.948Z,55.0
2018-03-19T06:48:28.801Z,55.4
2018-03-19T06:49:30.352Z,54.2
2018-03-19T06:50:32.271Z,54.3
2018-03-19T06:51:33.844Z,54.4
2018-03-19T06:52:35.613Z,54.1
2018-03-19T06:53:37.323Z,53.8
2018-03-19T06:54:39.120Z,53.4
2018-03-19T06:55:40.901Z,52.6
2018-03-19T06:56:42.564Z,52.6
2018-03-19T06:57:44.507Z,52.4
2018-03-19T06:58:46.197Z,51.3
2018-03-19T06:59:47.890Z,50.5
2018-03-19T07:00:49.943Z,49.5
2018-03-19T07:01:51.685Z,48.7
2018-03-19T07:02:53.708Z,48.3
2018-03-19T07:03:55.588Z,48.5
2018-03-19T07:04:57.305Z,48.2
2018-03-19T07:05:58.887Z,48.1
2018-03-19T07:07:00.909Z,48.2
2018-03-19T07:08:02.537Z,48.2
2018-03-19T07:09:04.283Z,47.5
2018-03-19T07:10:06.097Z,47.2
2018-03-19T07:11:08.059Z,47.1
2018-03-19T07:12:09.913Z,46.9
2018-03-19T07:13:12.092Z,47.2
2018-03-19T07:14:13.759Z,47.5
2018-03-19T07:15:15.683Z,47.2
2018-03-19T07:16:17.433Z,47.1
2018-03-19T07:17:19.710Z,46.9
2018-03-19T07:18:21.355Z,47.0
2018-03-19T07:19:23.242Z,46.9
2018-03-19T07:20:25.158Z,46.8
2018-03-19T07:21:26.903Z,46.9
2018-03-19T07:22:28.750Z,46.6
2018-03-19T07:23:30.406Z,47.1
2018-03-19T07:24:32.538Z,46.7
2018-03-19T07:25:34.164Z,47.0
2018-03-19T07:26:36.543Z,46.8
2018-03-19T07:27:38.249Z,47.3
2018-03-19T07:28:40.106Z,47.3
2018-03-19T07:29:41.752Z,47.1
2018-03-19T07:30:43.508Z,47.5
2018-03-19T07:31:45.408Z,47.4
2018-03-19T07:32:47.767Z,47.4
2018-03-19T07:33:49.907Z,47.7
2018-03-19T07:34:52.039Z,47.4
2018-03-19T07:35:53.789Z,47.9
2018-03-19T07:36:55.513Z,48.1
2018-03-19T07:37:57.343Z,48.3
2018-03-19T07:38:59.546Z,48.0
2018-03-19T07:40:01.315Z,48.6
2018-03-19T07:41:03.131Z,48.3
2018-03-19T07:42:04.773Z,48.0
2018-03-19T07:43:06.741Z,48.6
2018-03-19T07:44:08.538Z,47.5
2018-03-19T07:45:10.659Z,47.2
2018-03-19T07:46:12.428Z,46.8
2018-03-19T07:47:13.991Z,46.7
2018-03-19T07:48:16.051Z,46.5
2018-03-19T07:49:17.589Z,46.3
2018-03-19T07:50:19.393Z,46.2
2018-03-19T07:51:20.995Z,46.0
2018-03-19T07:52:22.671Z,46.0
2018-03-19T07:53:24.279Z,46.4
2018-03-19T07:54:26.303Z,46.1
2018-03-19T07:55:28.103Z,45.7
2018-03-19T07:56:29.911Z,46.2
2018-03-19T07:57:31.576Z,45.5
2018-03-19T07:58:33.374Z,45.3
2018-03-19T07:59:35.096Z,44.8
2018-03-19T08:00:36.742Z,45.2
2018-03-19T08:01:38.887Z,45.3
2018-03-19T08:02:40.562Z,44.7
2018-03-19T08:03:42.550Z,44.8
2018-03-19T08:04:44.156Z,44.3
2018-03-19T08:05:45.896Z,44.2
2018-03-19T08:06:47.575Z,44.2
2018-03-19T08:07:49.623Z,44.5
2018-03-19T08:08:51.483Z,44.7
2018-03-19T08:09:53.236Z,45.1
2018-03-19T08:10:54.981Z,43.8
2018-03-19T08:11:56.825Z,42.9
2018-03-19T08:12:58.581Z,42.8
2018-03-19T08:14:00.224Z,42.5
2018-03-19T08:15:01.986Z,42.1
2018-03-19T08:16:03.706Z,42.1
2018-03-19T08:17:05.721Z,41.6
2018-03-19T08:18:07.841Z,41.8
2018-03-19T08:19:09.532Z,41.5
2018-03-19T08:20:11.417Z,40.7
2018-03-19T08:21:13.533Z,40.9
2018-03-19T08:22:15.757Z,41.0
2018-03-19T08:23:17.720Z,41.0
2018-03-19T08:24:19.407Z,41.0
2018-03-19T08:25:21.678Z,41.3
2018-03-19T08:26:23.359Z,40.8
2018-03-19T08:27:25.094Z,40.6
2018-03-19T08:28:27.035Z,40.4
2018-03-19T08:29:29.299Z,40.1
2018-03-19T08:30:30.880Z,40.2
2018-03-19T08:31:32.684Z,40.1
2018-03-19T08:32:34.846Z,39.9
2018-03-19T08:33:36.575Z,40.0
2018-03-19T08:34:38.222Z,39.9
2018-03-19T08:35:40.031Z,39.8
2018-03-19T08:36:42.096Z,39.8
2018-03-19T08:37:43.710Z,39.7
2018-03-19T08:38:45.452Z,39.4
2018-03-19T08:39:47.084Z,38.8
2018-03-19T08:40:48.959Z,38.4
2018-03-19T08:41:50.667Z,38.3
2018-03-19T08:42:52.644Z,38.2
2018-03-19T08:43:54.382Z,38.5
2018-03-19T08:44:56.485Z,38.0
2018-03-19T08:45:58.600Z,38.2
2018-03-19T08:47:00.329Z,38.3
2018-03-19T08:48:01.828Z,38.1
2018-03-19T08:49:03.587Z,38.0
2018-03-19T08:50:05.596Z,38.0
2018-03-19T08:51:07.357Z,37.6
2018-03-19T08:52:09.081Z,38.0
2018-03-19T08:53:11.346Z,38.2
2018-03-19T08:54:13.095Z,37.6
2018-03-19T08:55:14.969Z,36.9
2018-03-19T08:56:16.670Z,36.7
2018-03-19T08:57:18.318Z,36.8
2018-03-19T08:58:20.258Z,37.2
2018-03-19T08:59:22.238Z,36.7
2018-03-19T09:00:24.172Z,36.9
2018-03-19T09:01:26.036Z,36.8
2018-03-19T09:02:28.095Z,36.8
2018-03-19T09:03:29.799Z,36.8
2018-03-19T09:04:31.573Z,37.5
2018-03-19T09:05:33.725Z,37.0
2018-03-19T09:06:35.695Z,37.0
2018-03-19T09:07:37.908Z,37.5
2018-03-19T09:08:39.690Z,37.2
2018-03-19T09:09:41.592Z,37.8
2018-03-19T09:10:43.328Z,37.6
2018-03-19T09:11:44.827Z,36.9
2018-03-19T09:12:46.607Z,35.8
2018-03-19T09:13:48.375Z,35.5
2018-03-19T09:14:50.322Z,35.6
2018-03-19T09:15:52.478Z,34.2
2018-03-19T09:16:54.770Z,34.6
2018-03-19T09:17:56.504Z,34.6
2018-03-19T09:18:58.112Z,34.3
2018-03-19T09:20:00.074Z,34.4
2018-03-19T09:21:01.682Z,33.8
2018-03-19T09:22:03.464Z,33.4
2018-03-19T09:23:05.314Z,33.5
2018-03-19T09:24:07.403Z,33.5
2018-03-19T09:25:08.978Z,34.3
2018-03-19T09:26:10.463Z,34.3
2018-03-19T09:27:11.947Z,33.7
2018-03-19T09:28:14.001Z,33.3
2018-03-19T09:29:15.723Z,33.3
2018-03-19T09:30:17.317Z,33.4
2018-03-19T09:31:19.110Z,33.6
2018-03-19T09:32:21.239Z,33.8
2018-03-19T09:33:22.808Z,33.1
2018-03-19T09:34:24.644Z,32.4
2018-03-19T09:35:26.911Z,32.5
2018-03-19T09:36:28.661Z,32.7
2018-03-19T09:37:30.496Z,32.8
2018-03-19T09:38:32.625Z,32.7
2018-03-19T09:39:34.363Z,32.4
2018-03-19T09:40:35.900Z,32.4
2018-03-19T09:41:37.687Z,33.2
2018-03-19T09:42:39.314Z,33.1
2018-03-19T09:43:40.873Z,32.6
2018-03-19T09:44:42.388Z,32.0
2018-03-19T09:45:43.973Z,31.5
2018-03-19T09:46:45.683Z,32.1
2018-03-19T09:47:47.397Z,32.3
2018-03-19T09:48:49.013Z,33.2
2018-03-19T09:49:51.162Z,32.9
2018-03-19T09:50:52.769Z,32.9
2018-03-19T09:51:54.547Z,32.1
2018-03-19T09:52:56.040Z,32.2
2018-03-19T09:53:58.083Z,31.5
2018-03-19T09:55:00.062Z,31.7
2018-03-19T09:56:01.722Z,32.5
2018-03-19T09:57:03.819Z,32.8
2018-03-19T09:58:05.681Z,32.4
2018-03-19T09:59:07.470Z,32.4
2018-03-19T10:00:08.959Z,32.8
2018-03-19T10:01:10.695Z,32.0
2018-03-19T10:02:12.899Z,31.0
2018-03-19T10:03:15.097Z,31.3
2018-03-19T10:04:16.906Z,31.2
2018-03-19T10:05:19.105Z,31.6
2018-03-19T10:06:21.341Z,31.5
2018-03-19T10:07:22.869Z,31.6
2018-03-19T10:08:24.610Z,31.4
2018-03-19T10:09:26.932Z,30.5
2018-03-19T10:10:28.695Z,30.6
2018-03-19T10:11:30.479Z,30.4
2018-03-19T10:12:32.601Z,30.3
2018-03-19T10:13:34.257Z,30.8
2018-03-19T10:14:35.816Z,31.0
2018-03-19T10:15:37.522Z,30.8
2018-03-19T10:16:39.736Z,31.1
2018-03-19T10:17:41.261Z,31.3
2018-03-19T10:18:43.217Z,30.5
2018-03-19T10:19:45.191Z,30.5
2018-03-19T10:20:46.887Z,30.6
2018-03-19T10:21:48.546Z,30.3
2018-03-19T10:22:50.227Z,29.9
2018-03-19T10:23:51.932Z,30.4
2018-03-19T10:24:53.818Z,29.9
2018-03-19T10:25:55.698Z,29.6
2018-03-19T10:26:57.438Z,29.2
2018-03-19T10:27:59.157Z,29.6
2018-03-19T10:29:01.087Z,29.5
2018-03-19T10:30:02.857Z,29.0
2018-03-19T10:31:04.521Z,28.2
2018-03-19T10:32:06.277Z,29.0
2018-03-19T10:33:08.037Z,29.5
2018-03-19T10:34:09.820Z,31.0
2018-03-19T10:35:11.676Z,30.8
2018-03-19T10:36:13.843Z,31.0
2018-03-19T10:37:15.829Z,31.0
2018-03-19T10:38:17.954Z,31.1
2018-03-19T10:39:19.890Z,31.5
2018-03-19T10:40:21.711Z,31.4
2018-03-19T10:41:23.533Z,30.9
2018-03-19T10:42:25.286Z,30.5
2018-03-19T10:43:27.113Z,30.6
2018-03-19T10:44:28.672Z,30.5
2018-03-19T10:45:30.432Z,30.3
2018-03-19T10:46:31.987Z,31.1
2018-03-19T10:47:33.577Z,30.5
2018-03-19T10:48:35.245Z,29.9
2018-03-19T10:49:36.795Z,30.3
2018-03-19T10:50:38.647Z,30.7
2018-03-19T10:51:40.449Z,30.5
2018-03-19T10:52:42.154Z,30.7
2018-03-19T10:53:43.774Z,30.7
2018-03-19T10:54:45.557Z,30.7
2018-03-19T10:55:47.442Z,30.4
2018-03-19T10:56:48.970Z,30.6
2018-03-19T10:57:50.782Z,30.2
2018-03-19T10:58:52.610Z,29.7
2018-03-19T10:59:54.246Z,30.1
2018-03-19T11:00:55.841Z,29.5
2018-03-19T11:01:57.514Z,29.8
2018-03-19T11:02:59.150Z,29.9
2018-03-19T11:04:01.034Z,29.7
2018-03-19T11:05:02.679Z,30.6
2018-03-19T11:06:04.465Z,30.1
2018-03-19T11:07:06.298Z,30.2
2018-03-19T11:08:08.452Z,30.7
2018-03-19T11:09:10.040Z,30.6
2018-03-19T11:10:11.692Z,31.4
2018-03-19T11:11:13.688Z,32.1
2018-03-19T11:12:15.399Z,31.6
2018-03-19T11:13:16.969Z,31.1
2018-03-19T11:14:18.733Z,30.5
2018-03-19T11:15:20.814Z,30.5
2018-03-19T11:16:22.523Z,30.9
2018-03-19T11:17:24.580Z,31.2
2018-03-19T11:18:26.333Z,31.3
2018-03-19T11:19:28.041Z,30.7
2018-03-19T11:20:29.816Z,30.6
2018-03-19T11:21:31.446Z,31.0
2018-03-19T11:22:33.074Z,30.9
2018-03-19T11:23:34.730Z,30.9
2018-03-19T11:24:36.307Z,30.3
2018-03-19T11:25:37.979Z,29.8
2018-03-19T11:26:39.531Z,29.8
2018-03-19T11:27:41.177Z,30.0
2018-03-19T11:28:42.805Z,30.0
2018-03-19T11:29:44.410Z,29.7
2018-03-19T11:30:46.254Z,29.8
2018-03-19T11:31:47.836Z,30.0
2018-03-19T11:32:49.349Z,29.7
2018-03-19T11:33:51.202Z,29.5
2018-03-19T11:34:52.834Z,29.7
2018-03-19T11:35:54.660Z,29.4
2018-03-19T11:36:56.392Z,29.3
2018-03-19T11:37:58.024Z,29.9
2018-03-19T11:38:59.707Z,29.7
2018-03-19T11:40:01.580Z,29.9
2018-03-19T11:41:03.218Z,29.9
2018-03-19T11:42:04.876Z,30.4
2018-03-19T11:43:06.723Z,30.6
2018-03-19T11:44:08.788Z,30.3
2018-03-19T11:45:10.609Z,29.7
2018-03-19T11:46:12.378Z,29.8
2018-03-19T11:47:14.190Z,29.8
2018-03-19T11:48:15.704Z,29.2
2018-03-19T11:49:17.769Z,28.4
2018-03-19T11:50:19.346Z,29.0
2018-03-19T11:51:21.237Z,29.4
2018-03-19T11:52:23.942Z,29.8
2018-03-19T11:53:25.780Z,30.5
2018-03-19T11:54:27.534Z,31.1
2018-03-19T11:55:29.360Z,31.3
2018-03-19T11:56:31.027Z,30.6
2018-03-19T11:57:32.888Z,30.7
2018-03-19T11:58:34.936Z,30.7
2018-03-19T11:59:36.724Z,30.9
2018-03-19T12:00:38.595Z,31.0
2018-03-19T12:01:40.220Z,31.0
2018-03-19T12:02:41.973Z,30.8
2018-03-19T12:03:43.845Z,30.7
2018-03-19T12:04:45.406Z,30.1
2018-03-19T12:05:47.089Z,29.8
2018-03-19T12:06:48.782Z,29.8
2018-03-19T12:07:50.706Z,29.3
2018-03-19T12:08:52.461Z,28.5
2018-03-19T12:09:54.093Z,27.6
2018-03-19T12:10:55.947Z,26.9
2018-03-19T12:11:57.557Z,26.6
2018-03-19T12:12:59.271Z,26.7
2018-03-19T12:14:00.990Z,27.7
2018-03-19T12:15:02.760Z,28.1
2018-03-19T12:16:04.427Z,29.3
2018-03-19T12:17:06.062Z,30.1
2018-03-19T12:18:07.675Z,29.7
2018-03-19T12:19:09.351Z,29.9
2018-03-19T12:20:11.133Z,29.4
2018-03-19T12:21:12.930Z,29.4
2018-03-19T12:22:14.454Z,29.2
2018-03-19T12:23:16.304Z,28.4
2018-03-19T12:24:18.194Z,28.7
2018-03-19T12:25:20.123Z,28.6
2018-03-19T12:26:21.730Z,28.1
2018-03-19T12:27:23.815Z,27.8
2018-03-19T12:28:25.512Z,28.2
2018-03-19T12:29:27.198Z,28.4
2018-03-19T12:30:28.904Z,29.6
2018-03-19T12:31:30.650Z,30.3
2018-03-19T12:32:32.468Z,30.6
2018-03-19T12:33:34.007Z,30.0
2018-03-19T12:34:35.783Z,29.3
2018-03-19T12:35:37.414Z,28.5
2018-03-19T12:36:39.390Z,28.1
2018-03-19T12:37:41.106Z,27.4
2018-03-19T12:38:43.248Z,27.6
2018-03-19T12:39:44.747Z,28.0
2018-03-19T12:40:46.418Z,28.6
2018-03-19T12:41:47.995Z,28.3
2018-03-19T12:42:49.764Z,28.7
2018-03-19T12:43:51.461Z,28.2
2018-03-19T12:44:53.162Z,27.6
2018-03-19T12:45:54.966Z,27.5
2018-03-19T12:46:56.830Z,27.4
2018-03-19T12:47:58.508Z,26.9
2018-03-19T12:49:00.398Z,27.6
2018-03-19T12:50:02.257Z,28.3
2018-03-19T12:51:04.044Z,28.1
2018-03-19T12:52:05.681Z,28.3
2018-03-19T12:53:07.349Z,28.7
2018-03-19T12:54:09.229Z,28.3
2018-03-19T12:55:10.862Z,28.1
2018-03-19T12:56:12.514Z,27.3
2018-03-19T12:57:14.419Z,27.6
2018-03-19T12:58:15.988Z,27.8
2018-03-19T12:59:17.919Z,27.3
2018-03-19T13:00:19.718Z,27.3
2018-03-19T13:01:21.611Z,26.6
2018-03-19T13:02:23.381Z,27.4
2018-03-19T13:03:25.093Z,27.4
2018-03-19T13:04:26.683Z,27.8
2018-03-19T13:05:28.312Z,27.6
2018-03-19T13:06:30.028Z,26.8
2018-03-19T13:07:32.146Z,27.1
2018-03-19T13:08:33.923Z,26.6
2018-03-19T13:09:35.472Z,26.7
2018-03-19T13:10:37.185Z,26.6
2018-03-19T13:11:38.994Z,26.7
2018-03-19T13:12:40.759Z,26.3
2018-03-19T13:13:42.528Z,25.7
2018-03-19T13:14:44.348Z,25.5
2018-03-19T13:15:46.356Z,25.8
2018-03-19T13:16:48.341Z,26.8
2018-03-19T13:17:50.077Z,27.2
2018-03-19T13:18:52.892Z,27.2
2018-03-19T13:19:54.456Z,27.0
2018-03-19T13:20:55.999Z,27.3
2018-03-19T13:21:57.850Z,27.7
2018-03-19T13:22:59.768Z,27.7
2018-03-19T13:24:01.644Z,28.2
2018-03-19T13:25:03.576Z,26.7
2018-03-19T13:26:05.127Z,26.1
2018-03-19T13:27:06.989Z,26.7
2018-03-19T13:28:09.013Z,27.2
2018-03-19T13:29:11.385Z,27.5
2018-03-19T13:30:13.482Z,28.1
2018-03-19T13:31:15.412Z,27.7
2018-03-19T13:32:17.420Z,27.4
2018-03-19T13:33:19.076Z,27.1
2018-03-19T13:34:21.061Z,27.8
2018-03-19T13:35:23.020Z,27.8
2018-03-19T13:36:24.947Z,27.5
2018-03-19T13:37:27.208Z,27.0
2018-03-19T13:38:28.937Z,27.4
2018-03-19T13:39:30.896Z,28.1
2018-03-19T13:40:32.785Z,28.2
2018-03-19T13:41:34.806Z,28.1
2018-03-19T13:42:36.677Z,27.9